• Join FlightAware (Why Join?)
  • Login
  • US Flag 
03:58PM EDT


 

Airport Tracker/Info


-or-


 

Live Flight TrackerFlight Track Log ✈ MAL8056 ✈ 07-May-2013 ✈ CYYZ - CYSB

Flight Track Log - Related Links

Times and Time Zones

All times are in EDT time to prevent confusion due to time zone crossing. See the MAL8056 flight status page for this flight to view local times or setup timezone preferences in your user account.

Time Position Orientation Groundspeed Altitude Reporting Facility
EDT Latitude Longitude Course Direction KTS MPH feet Rate Location/Type
08:32AM 43.6667 -79.6333 270° West 20 23 600  Level Toronto Center
08:33AM 43.6667 -79.6500 270° West 100 115 1,100 540 Climbing Toronto Center
08:34AM 43.6833 -79.7000 295° West 110 127 1,700 600 Climbing Toronto Center
08:35AM 43.7167 -79.7333 324° Northwest 110 127 2,400 600 Climbing Toronto Center
08:36AM 43.7500 -79.7333 360° North 110 127 3,000 600 Climbing Toronto Center
08:37AM 43.7667 -79.7333 360° North 110 127 3,700 660 Climbing Toronto Center
08:38AM 43.8000 -79.7333 360° North 110 127 4,400 660 Climbing Toronto Center
08:39AM 43.8333 -79.7333 360° North 110 127 5,100 600 Climbing Toronto Center
08:40AM 43.8667 -79.7333 360° North 110 127 5,700 600 Climbing Toronto Center
08:41AM 43.9000 -79.7333 360° North 110 127 6,400 600 Climbing Toronto Center
08:42AM 43.9333 -79.7000 36° Northeast 120 138 7,000 600 Climbing Toronto Center
08:43AM 43.9667 -79.7000 360° North 130 150 7,700 540 Climbing Toronto Center
08:44AM 44.0000 -79.7000 360° North 130 150 8,100 120 Climbing Toronto Center
08:45AM 44.0500 -79.7333 334° Northwest 160 184 8,000 -60 Descending Toronto Center
08:46AM 44.1000 -79.7500 347° North 170 196 8,000  Level Toronto Center
08:47AM 44.1333 -79.7667 340° North 170 196 8,000  Level Toronto Center
08:48AM 44.1833 -79.8000 334° Northwest 170 196 8,000  Level Toronto Center
08:49AM 44.2333 -79.8000 360° North 170 196 8,000  Level Toronto Center
08:50AM 44.2833 -79.8167 347° North 170 196 8,000  Level Toronto Center
08:51AM 44.3167 -79.8500 324° Northwest 170 196 8,000  Level Toronto Center
08:52AM 44.3667 -79.8667 347° North 170 196 8,000  Level Toronto Center
08:53AM 44.4167 -79.8667 360° North 170 196 8,000  Level Toronto Center
08:54AM 44.4667 -79.8833 347° North 170 196 8,000  Level Toronto Center
08:55AM 44.5167 -79.9167 335° Northwest 170 196 8,000  Level Toronto Center
08:56AM 44.5500 -79.9333 340° North 170 196 8,000  Level Toronto Center
08:57AM 44.6000 -79.9667 335° Northwest 170 196 8,000  Level Toronto Center
08:58AM 44.6500 -79.9667 360° North 170 196 8,000  Level Toronto Center
08:59AM 44.7000 -79.9833 347° North 170 196 8,000  Level Toronto Center
09:00AM 44.7333 -80.0000 340° North 170 196 8,000  Level Toronto Center
09:01AM 44.7833 -80.0167 347° North 170 196 8,000  Level Toronto Center
09:02AM 44.8333 -80.0333 347° North 170 196 8,000  Level Toronto Center
09:03AM 44.8667 -80.0500 340° North 170 196 8,000  Level Toronto Center
09:04AM 44.9167 -80.0833 335° Northwest 170 196 8,000  Level Toronto Center
09:05AM 44.9500 -80.1000 341° North 170 196 8,000  Level Toronto Center
09:06AM 45.0000 -80.1333 335° Northwest 170 196 8,000  Level Toronto Center
09:07AM 45.0500 -80.1333 360° North 170 196 8,000  Level Toronto Center
09:08AM 45.0833 -80.1500 341° North 170 196 8,000  Level Toronto Center
09:09AM 45.1333 -80.1500 360° North 170 196 8,000  Level Toronto Center
09:10AM 45.1833 -80.1833 335° Northwest 160 184 8,000  Level Toronto Center
09:11AM 45.2167 -80.2000 341° North 160 184 8,000  Level Toronto Center
09:12AM 45.2667 -80.2167 347° North 160 184 8,000  Level Toronto Center
09:13AM 45.3167 -80.2333 347° North 170 196 8,000  Level Toronto Center
09:14AM 45.3500 -80.2500 341° North 160 184 8,000  Level Toronto Center
09:15AM 45.4000 -80.2667 347° North 160 184 8,000  Level Toronto Center
09:16AM 45.4500 -80.3000 335° Northwest 160 184 8,000  Level Toronto Center
09:17AM 45.4833 -80.3000 360° North 160 184 8,000  Level Toronto Center
09:18AM 45.5333 -80.3167 347° North 160 184 8,000  Level Toronto Center
09:19AM 45.5667 -80.3500 325° Northwest 160 184 8,000  Level Toronto Center
09:20AM 45.6167 -80.3500 360° North 160 184 8,000  Level Toronto Center
09:21AM 45.6500 -80.3667 341° North 160 184 8,000  Level Toronto Center
09:22AM 45.7000 -80.4000 335° Northwest 160 184 8,000  Level Toronto Center
09:23AM 45.7500 -80.4167 347° North 160 184 8,000  Level Toronto Center
09:24AM 45.7833 -80.4167 360° North 160 184 8,000  Level Toronto Center
09:25AM 45.8333 -80.4500 335° Northwest 160 184 8,000  Level Toronto Center
09:26AM 45.8833 -80.4667 347° North 160 184 8,000  Level Toronto Center
09:27AM 45.9167 -80.5000 325° Northwest 160 184 8,000  Level Toronto Center
09:28AM 45.9667 -80.5000 360° North 160 184 8,000  Level Toronto Center
09:29AM 46.0000 -80.5167 341° North 160 184 8,000  Level Toronto Center
09:30AM 46.0500 -80.5500 335° Northwest 160 184 8,000  Level Toronto Center
09:31AM 46.0833 -80.5500 360° North 160 184 8,000  Level Toronto Center
09:32AM 46.1333 -80.5667 347° North 160 184 8,000  Level Toronto Center
09:33AM 46.1667 -80.6000 325° Northwest 160 184 8,000  Level Toronto Center
09:34AM 46.2167 -80.6167 347° North 160 184 8,000  Level Toronto Center
09:35AM 46.2667 -80.6167 360° North 160 184 8,000  Level Toronto Center
09:36AM 46.3000 -80.6500 325° Northwest 160 184 8,000  Level Toronto Center
09:37AM 46.3500 -80.6667 347° North 160 184 8,000 -60 Level Toronto Center
09:38AM 46.3833 -80.6667 360° North 150 173 7,900 -120 Descending Toronto Center